AAL2360 KTUL-KDFW
Flight info
| Callsign | AAL2360 |
|---|---|
| Flight time | N/A |
| Altitude | 32000 |
| Route | PEJAY AXXEE BRDJE5 |
| Aircraft | A320/M-SDE3FGHIRWY/LB1 |
Departure
| Time | 2026-05-06 01:39 |
|---|---|
| Airport | Tulsa International Airport (KTUL) |
Arrival
| Time | N/A |
|---|---|
| Airport | Dallas Fort Worth International Airport (KDFW) |
| Time | Latitude | Longitude | Altitude | Speed | Heading |
|---|---|---|---|---|---|
| 2026-05-06 01:30 | 36.19168 | -95.88678 | 667 ft | 0 kts | 201° |
| 2026-05-06 01:32 | 36.19185 | -95.88669 | 666 ft | 4 kts | 204° |
| 2026-05-06 01:32 | 36.19205 | -95.88658 | 667 ft | 3 kts | 203° |
| 2026-05-06 01:33 | 36.19227 | -95.88650 | 666 ft | 4 kts | 159° |
| 2026-05-06 01:33 | 36.19243 | -95.88668 | 667 ft | 4 kts | 127° |
| 2026-05-06 01:33 | 36.19248 | -95.88675 | 664 ft | 0 kts | 127° |
| 2026-05-06 01:35 | 36.19246 | -95.88672 | 667 ft | 1 kts | 127° |
| 2026-05-06 01:35 | 36.19235 | -95.88654 | 667 ft | 4 kts | 127° |
| 2026-05-06 01:35 | 36.19214 | -95.88621 | 667 ft | 6 kts | 127° |
| 2026-05-06 01:36 | 36.19185 | -95.88573 | 667 ft | 8 kts | 127° |
| 2026-05-06 01:36 | 36.19147 | -95.88511 | 667 ft | 10 kts | 127° |
| 2026-05-06 01:36 | 36.19092 | -95.88467 | 667 ft | 10 kts | 184° |
| 2026-05-06 01:36 | 36.19026 | -95.88521 | 667 ft | 12 kts | 213° |
| 2026-05-06 01:37 | 36.18938 | -95.88538 | 667 ft | 11 kts | 183° |
| 2026-05-06 01:37 | 36.18870 | -95.88543 | 667 ft | 10 kts | 183° |
| 2026-05-06 01:37 | 36.18792 | -95.88548 | 667 ft | 12 kts | 183° |
| 2026-05-06 01:37 | 36.18704 | -95.88551 | 668 ft | 10 kts | 172° |
| 2026-05-06 01:38 | 36.18673 | -95.88477 | 667 ft | 12 kts | 91° |
| 2026-05-06 01:38 | 36.18669 | -95.88372 | 667 ft | 12 kts | 93° |
| 2026-05-06 01:38 | 36.18683 | -95.88314 | 666 ft | 8 kts | 25° |
| 2026-05-06 01:38 | 36.18724 | -95.88311 | 666 ft | 6 kts | 3° |
| 2026-05-06 01:39 | 36.18923 | -95.88298 | 666 ft | 63 kts | 3° |
| 2026-05-06 01:39 | 36.19579 | -95.88252 | 668 ft | 123 kts | 3° |
| 2026-05-06 01:39 | 36.20588 | -95.88188 | 812 ft | 157 kts | 3° |
| 2026-05-06 01:39 | 36.21679 | -95.88138 | 1545 ft | 157 kts | 4° |
| 2026-05-06 01:40 | 36.22820 | -95.88102 | 2039 ft | 174 kts | 4° |
| 2026-05-06 01:40 | 36.24097 | -95.88056 | 2349 ft | 196 kts | 5° |
| 2026-05-06 01:40 | 36.25547 | -95.87998 | 2767 ft | 220 kts | 6° |
| 2026-05-06 01:40 | 36.27101 | -95.87738 | 3428 ft | 230 kts | 24° |
| 2026-05-06 01:41 | 36.28384 | -95.86565 | 4115 ft | 241 kts | 52° |
| 2026-05-06 01:41 | 36.29063 | -95.84644 | 4708 ft | 261 kts | 81° |
| 2026-05-06 01:41 | 36.28914 | -95.82338 | 5299 ft | 279 kts | 109° |
| 2026-05-06 01:41 | 36.27942 | -95.80227 | 5914 ft | 287 kts | 137° |
| 2026-05-06 01:42 | 36.26332 | -95.78828 | 6696 ft | 283 kts | 163° |
| 2026-05-06 01:42 | 36.24436 | -95.78263 | 7496 ft | 281 kts | 175° |
| 2026-05-06 01:42 | 36.22496 | -95.77829 | 8332 ft | 284 kts | 175° |
| 2026-05-06 01:42 | 36.20540 | -95.77387 | 9152 ft | 288 kts | 175° |
| 2026-05-06 01:43 | 36.18548 | -95.76929 | 9934 ft | 292 kts | 176° |
| 2026-05-06 01:43 | 36.16512 | -95.76458 | 10421 ft | 307 kts | 176° |
| 2026-05-06 01:43 | 36.14331 | -95.75963 | 10618 ft | 330 kts | 176° |
| 2026-05-06 01:43 | 36.12021 | -95.75438 | 11014 ft | 343 kts | 175° |
| 2026-05-06 01:44 | 36.09658 | -95.74890 | 11694 ft | 346 kts | 177° |
| 2026-05-06 01:44 | 36.07287 | -95.74330 | 12466 ft | 347 kts | 178° |
| 2026-05-06 01:44 | 36.04910 | -95.73766 | 13198 ft | 349 kts | 178° |
| 2026-05-06 01:44 | 36.02517 | -95.73207 | 13903 ft | 351 kts | 178° |
| 2026-05-06 01:45 | 36.00107 | -95.72651 | 14516 ft | 354 kts | 179° |
| 2026-05-06 01:45 | 35.97678 | -95.72096 | 15091 ft | 357 kts | 179° |
| 2026-05-06 01:45 | 35.95213 | -95.71533 | 15674 ft | 361 kts | 179° |
| 2026-05-06 01:45 | 35.92735 | -95.70967 | 16245 ft | 364 kts | 180° |
| 2026-05-06 01:46 | 35.91127 | -95.70599 | 16626 ft | 367 kts | 179° |
| 2026-05-06 01:46 | 35.87776 | -95.69832 | 17366 ft | 372 kts | 179° |
| 2026-05-06 01:46 | 35.85213 | -95.69247 | 17929 ft | 377 kts | 179° |
| 2026-05-06 01:46 | 35.83469 | -95.68849 | 18299 ft | 380 kts | 179° |
| 2026-05-06 01:47 | 35.80856 | -95.68251 | 18809 ft | 383 kts | 179° |
| 2026-05-06 01:47 | 35.77359 | -95.67438 | 19535 ft | 388 kts | 180° |
| 2026-05-06 01:47 | 35.75599 | -95.67027 | 19909 ft | 390 kts | 180° |
| 2026-05-06 01:47 | 35.72922 | -95.66405 | 20461 ft | 393 kts | 180° |
| 2026-05-06 01:48 | 35.70190 | -95.65783 | 21004 ft | 396 kts | 181° |
| 2026-05-06 01:48 | 35.67506 | -95.65184 | 21524 ft | 397 kts | 182° |
| 2026-05-06 01:48 | 35.64790 | -95.64925 | 22024 ft | 387 kts | 192° |
| 2026-05-06 01:48 | 35.62143 | -95.65210 | 22480 ft | 379 kts | 199° |
| 2026-05-06 01:49 | 35.59523 | -95.65682 | 22988 ft | 382 kts | 200° |
| 2026-05-06 01:49 | 35.56883 | -95.66154 | 23487 ft | 384 kts | 200° |
| 2026-05-06 01:49 | 35.54232 | -95.66629 | 23900 ft | 386 kts | 200° |
| 2026-05-06 01:49 | 35.51568 | -95.67111 | 24306 ft | 388 kts | 200° |
| 2026-05-06 01:50 | 35.48894 | -95.67599 | 24709 ft | 390 kts | 200° |
| 2026-05-06 01:50 | 35.46202 | -95.68087 | 25104 ft | 392 kts | 200° |
| 2026-05-06 01:50 | 35.43497 | -95.68573 | 25491 ft | 394 kts | 200° |